createdAt,value
2022-11-03T00:01:40.517Z,1.25
2022-11-03T00:04:08.429Z,1.88
2022-11-03T00:06:35.507Z,1.35
2022-11-03T00:09:04.161Z,1.45
2022-11-03T00:11:33.812Z,1.13
2022-11-03T00:14:00.953Z,1.20
2022-11-03T00:16:27.579Z,1.30
2022-11-03T00:18:54.347Z,1.50
2022-11-03T00:21:22.308Z,1.23
2022-11-03T00:23:49.085Z,1.25
2022-11-03T00:26:18.385Z,2.05
2022-11-03T00:28:46.379Z,1.30
2022-11-03T00:31:20.726Z,1.38
2022-11-03T00:33:48.118Z,1.55
2022-11-03T00:36:28.521Z,1.48
2022-11-03T00:38:55.550Z,1.20
2022-11-03T00:41:23.012Z,1.30
2022-11-03T00:43:50.272Z,1.98
2022-11-03T00:46:17.672Z,1.40
2022-11-03T00:48:44.258Z,1.58
2022-11-03T00:51:12.384Z,1.50
2022-11-03T00:53:46.003Z,1.38
2022-11-03T00:56:17.947Z,1.63
2022-11-03T00:58:45.054Z,1.30
2022-11-03T01:01:18.805Z,1.30
2022-11-03T01:04:06.152Z,1.33
2022-11-03T01:06:59.911Z,1.30
2022-11-03T01:09:34.072Z,1.50
2022-11-03T01:12:05.838Z,1.35
2022-11-03T01:14:35.170Z,1.42
2022-11-03T01:17:04.294Z,1.20
2022-11-03T01:19:30.885Z,1.67
2022-11-03T01:21:57.419Z,1.50
2022-11-03T01:24:24.031Z,1.50
2022-11-03T01:26:50.693Z,1.33
2022-11-03T01:29:17.334Z,1.33
2022-11-03T01:31:43.865Z,1.35
2022-11-03T01:34:20.263Z,1.50
2022-11-03T01:36:47.377Z,1.48
2022-11-03T01:39:15.962Z,1.25
2022-11-03T01:44:09.697Z,1.10
2022-11-03T01:46:59.461Z,1.90
2022-11-03T01:49:32.058Z,1.50
2022-11-03T01:52:04.060Z,1.42
2022-11-03T01:54:31.040Z,1.30
2022-11-03T01:56:58.811Z,1.60
2022-11-03T01:59:25.645Z,1.60
2022-11-03T02:01:52.417Z,1.55
2022-11-03T02:04:30.987Z,1.30
2022-11-03T02:09:50.912Z,1.25
2022-11-03T02:12:18.605Z,1.38
2022-11-03T02:14:50.261Z,1.20
2022-11-03T02:17:18.106Z,2.28
2022-11-03T02:19:48.793Z,1.35
2022-11-03T02:22:37.198Z,1.73
2022-11-03T02:27:30.152Z,1.40
2022-11-03T02:29:58.906Z,1.63
2022-11-03T02:32:31.126Z,1.40
2022-11-03T02:35:04.077Z,2.03
2022-11-03T02:37:34.718Z,1.45
2022-11-03T02:40:14.511Z,1.27
2022-11-03T02:42:43.037Z,1.67
2022-11-03T02:47:40.512Z,1.63
2022-11-03T02:50:10.467Z,1.30
2022-11-03T02:52:46.222Z,1.40
2022-11-03T02:55:24.786Z,1.25
2022-11-03T02:58:05.817Z,1.40
2022-11-03T03:00:39.207Z,1.83
2022-11-03T03:03:11.164Z,1.30
2022-11-03T03:05:41.009Z,1.20
2022-11-03T03:08:10.862Z,1.50
2022-11-03T03:10:41.174Z,1.52
2022-11-03T03:13:10.099Z,0.98
2022-11-03T03:15:40.944Z,1.60
2022-11-03T03:18:11.370Z,1.33
2022-11-03T03:20:55.529Z,1.35
2022-11-03T03:23:27.411Z,1.30
2022-11-03T03:25:59.431Z,1.73
2022-11-03T03:28:52.206Z,1.33
2022-11-03T03:31:19.842Z,1.83
2022-11-03T03:33:47.994Z,1.10
2022-11-03T03:36:17.843Z,1.60
2022-11-03T03:38:49.406Z,1.35
2022-11-03T03:41:22.052Z,1.45
2022-11-03T03:43:55.807Z,1.20
2022-11-03T03:46:23.449Z,1.50
2022-11-03T03:48:50.062Z,2.00
2022-11-03T03:51:19.653Z,1.30
2022-11-03T03:53:50.364Z,1.38
2022-11-03T03:56:18.066Z,1.17
2022-11-03T03:58:44.622Z,1.53
2022-11-03T04:01:12.706Z,1.50
2022-11-03T04:03:39.351Z,1.60
2022-11-03T04:06:06.001Z,1.50
2022-11-03T04:08:32.548Z,1.40
2022-11-03T04:11:17.511Z,1.45
2022-11-03T04:14:02.381Z,1.35
2022-11-03T04:16:47.321Z,1.30
2022-11-03T04:19:32.365Z,1.13
2022-11-03T04:22:17.063Z,1.40
2022-11-03T04:24:45.323Z,1.42
2022-11-03T04:27:33.494Z,2.00
2022-11-03T04:30:16.807Z,1.65
2022-11-03T04:32:48.407Z,1.52
2022-11-03T04:35:18.134Z,1.30
2022-11-03T04:37:47.778Z,1.60
2022-11-03T04:40:16.909Z,1.58
2022-11-03T04:42:44.460Z,1.73
2022-11-03T04:45:23.117Z,1.80
2022-11-03T04:47:49.914Z,1.60
2022-11-03T04:50:21.852Z,1.80
2022-11-03T04:52:51.821Z,2.20
2022-11-03T04:55:18.973Z,1.60
2022-11-03T04:57:45.647Z,1.88
2022-11-03T05:00:17.681Z,1.63
2022-11-03T05:02:46.604Z,1.50
2022-11-03T05:05:24.890Z,1.90
2022-11-03T05:07:52.714Z,1.42
2022-11-03T05:10:21.667Z,1.25
2022-11-03T05:12:48.302Z,1.70
2022-11-03T05:15:41.090Z,1.50
2022-11-03T05:18:40.085Z,1.75
2022-11-03T05:21:08.682Z,1.33
2022-11-03T05:26:28.470Z,1.35
2022-11-03T05:29:04.390Z,1.63
2022-11-03T05:31:32.838Z,1.70
2022-11-03T05:34:02.059Z,1.45
2022-11-03T05:36:33.351Z,1.35
2022-11-03T05:39:17.835Z,1.83
2022-11-03T05:41:44.375Z,1.40
2022-11-03T05:44:32.359Z,1.02
2022-11-03T05:47:01.944Z,2.05
2022-11-03T05:49:31.066Z,1.40
2022-11-03T05:51:57.602Z,1.58
2022-11-03T05:54:26.519Z,1.25
2022-11-03T05:56:53.133Z,1.80
2022-11-03T05:59:23.510Z,1.30
2022-11-03T06:01:50.402Z,1.55
2022-11-03T06:04:33.339Z,2.08
2022-11-03T06:07:04.979Z,1.40
2022-11-03T06:09:33.863Z,1.55
2022-11-03T06:12:02.353Z,1.55
2022-11-03T06:17:07.779Z,1.50
2022-11-03T06:19:38.291Z,1.40
2022-11-03T06:22:17.205Z,2.05
2022-11-03T06:24:45.334Z,1.90
2022-11-03T06:27:24.032Z,2.35
2022-11-03T06:29:53.104Z,1.42
2022-11-03T06:32:19.664Z,1.67
2022-11-03T06:34:47.862Z,1.92
2022-11-03T06:37:33.149Z,1.58
2022-11-03T06:40:11.804Z,1.50
2022-11-03T06:42:41.605Z,1.70
2022-11-03T06:45:16.713Z,1.77
2022-11-03T06:47:43.244Z,1.77
2022-11-03T06:50:43.882Z,1.67
2022-11-03T06:53:11.903Z,1.70
2022-11-03T06:55:40.073Z,1.75
2022-11-03T06:58:29.872Z,1.65
2022-11-03T07:01:03.332Z,1.55
2022-11-03T07:03:33.608Z,1.55
2022-11-03T07:06:24.631Z,1.55
2022-11-03T07:08:54.679Z,1.35
2022-11-03T07:11:23.648Z,1.80
2022-11-03T07:13:53.252Z,1.67
2022-11-03T07:16:32.548Z,1.60
2022-11-03T07:19:06.840Z,1.80
2022-11-03T07:21:37.116Z,1.77
2022-11-03T07:24:27.680Z,1.92
2022-11-03T07:26:59.236Z,1.90
2022-11-03T07:29:27.982Z,1.70
2022-11-03T07:31:55.308Z,1.30
2022-11-03T07:34:25.232Z,1.67
2022-11-03T07:36:55.659Z,1.42
2022-11-03T07:39:22.981Z,1.58
2022-11-03T07:41:50.675Z,1.50
2022-11-03T07:44:22.608Z,1.97
2022-11-03T07:46:50.138Z,1.77
2022-11-03T07:49:25.891Z,1.70
2022-11-03T07:51:52.946Z,1.80
2022-11-03T07:54:24.875Z,1.95
2022-11-03T07:57:20.739Z,1.85
2022-11-03T07:59:52.493Z,2.67
2022-11-03T08:02:33.748Z,1.80
2022-11-03T08:05:00.903Z,1.55
2022-11-03T08:07:28.130Z,1.80
2022-11-03T08:09:55.010Z,1.50
2022-11-03T08:12:21.709Z,1.75
2022-11-03T08:14:48.295Z,1.60
2022-11-03T08:17:15.554Z,1.70
2022-11-03T08:19:42.184Z,1.70
2022-11-03T08:22:08.944Z,1.85
2022-11-03T08:24:35.485Z,1.73
2022-11-03T08:27:03.581Z,1.80
2022-11-03T08:29:30.288Z,1.95
2022-11-03T08:31:56.833Z,1.80
2022-11-03T08:34:23.563Z,1.75
2022-11-03T08:36:50.106Z,1.65
2022-11-03T08:39:17.317Z,1.30
2022-11-03T08:41:43.867Z,1.80
2022-11-03T08:44:10.495Z,1.38
2022-11-03T08:46:37.083Z,1.60
2022-11-03T08:49:04.949Z,1.92
2022-11-03T08:51:31.542Z,1.83
2022-11-03T08:53:58.095Z,1.77
2022-11-03T08:56:24.765Z,2.17
2022-11-03T08:58:51.420Z,2.35
2022-11-03T09:01:18.193Z,1.35
2022-11-03T09:03:44.812Z,1.50
2022-11-03T09:06:11.469Z,1.27
2022-11-03T09:11:25.018Z,1.60
2022-11-03T09:13:51.596Z,1.48
2022-11-03T09:16:18.248Z,1.85
2022-11-03T09:18:45.558Z,1.65
2022-11-03T09:21:12.338Z,1.55
2022-11-03T09:23:39.276Z,1.95
2022-11-03T09:26:06.824Z,1.10
2022-11-03T09:28:33.407Z,1.90
2022-11-03T09:30:59.973Z,2.03
2022-11-03T09:33:26.596Z,1.83
2022-11-03T09:35:53.137Z,1.50
2022-11-03T09:38:19.687Z,1.67
2022-11-03T09:40:46.352Z,1.75
2022-11-03T09:43:12.987Z,1.60
2022-11-03T09:45:39.729Z,1.52
2022-11-03T09:48:12.486Z,1.55
2022-11-03T09:50:39.756Z,1.40
2022-11-03T09:53:06.795Z,2.85
2022-11-03T09:55:34.037Z,1.75
2022-11-03T09:58:02.323Z,1.60
2022-11-03T10:00:29.081Z,1.60
2022-11-03T10:02:55.965Z,1.70
2022-11-03T10:05:25.413Z,1.70
2022-11-03T10:10:21.810Z,1.50
2022-11-03T10:12:49.445Z,1.77
2022-11-03T10:15:17.496Z,1.50
2022-11-03T10:17:45.106Z,1.52
2022-11-03T10:20:17.031Z,1.60
2022-11-03T10:22:44.647Z,1.88
2022-11-03T10:25:40.378Z,1.60
2022-11-03T10:28:24.112Z,1.77
2022-11-03T10:31:16.536Z,2.10
2022-11-03T10:33:56.172Z,1.60
2022-11-03T10:36:31.159Z,1.70
2022-11-03T10:38:58.470Z,1.45
2022-11-03T10:41:29.628Z,1.63
2022-11-03T10:44:13.003Z,1.60
2022-11-03T10:46:55.826Z,2.05
2022-11-03T10:49:22.707Z,1.48
2022-11-03T10:51:51.508Z,1.70
2022-11-03T10:54:23.152Z,1.92
2022-11-03T10:56:51.844Z,1.70
2022-11-03T10:59:20.828Z,1.90
2022-11-03T11:01:47.640Z,1.60
2022-11-03T11:04:19.442Z,1.75
2022-11-03T11:06:47.145Z,1.85
2022-11-03T11:09:22.494Z,1.70
2022-11-03T11:12:16.856Z,2.10
2022-11-03T11:15:07.070Z,1.65
2022-11-03T11:17:50.074Z,1.88
2022-11-03T11:20:21.606Z,1.90
2022-11-03T11:22:49.489Z,1.88
2022-11-03T11:25:18.074Z,2.00
2022-11-03T11:27:44.544Z,1.85
2022-11-03T11:30:37.154Z,2.10
2022-11-03T11:33:15.069Z,1.67
2022-11-03T11:35:41.542Z,1.60
2022-11-03T11:38:45.562Z,1.73
2022-11-03T11:41:12.108Z,1.52
2022-11-03T11:43:38.714Z,1.70
2022-11-03T11:46:23.875Z,2.10
2022-11-03T11:48:59.209Z,1.80
2022-11-03T11:51:25.818Z,2.00
2022-11-03T11:54:09.867Z,1.95
2022-11-03T11:56:44.359Z,1.92
2022-11-03T11:59:24.337Z,2.00
2022-11-03T12:01:53.442Z,2.03
2022-11-03T12:08:17.866Z,1.70
2022-11-03T12:11:11.321Z,2.10
2022-11-03T12:13:43.809Z,2.20
2022-11-03T12:16:27.092Z,2.15
2022-11-03T12:18:54.295Z,2.20
2022-11-03T12:21:47.178Z,2.00
2022-11-03T12:24:32.455Z,1.98
2022-11-03T12:27:00.208Z,2.20
2022-11-03T12:29:26.830Z,2.10
2022-11-03T12:31:53.715Z,2.60
2022-11-03T12:34:20.283Z,2.03
2022-11-03T12:36:48.727Z,2.03
2022-11-03T12:39:18.475Z,2.08
2022-11-03T12:41:45.048Z,2.45
2022-11-03T12:44:11.765Z,1.70
2022-11-03T12:46:38.354Z,1.75
2022-11-03T12:49:04.919Z,1.60
2022-11-03T12:51:31.587Z,2.25
2022-11-03T12:53:58.133Z,2.10
2022-11-03T12:56:24.757Z,2.10
2022-11-03T12:58:51.340Z,1.70
2022-11-03T13:01:18.832Z,1.67
2022-11-03T13:03:45.485Z,2.03
2022-11-03T13:06:14.619Z,2.08
2022-11-03T13:08:41.270Z,1.40
2022-11-03T13:11:26.401Z,2.15
2022-11-03T13:13:53.378Z,1.70
2022-11-03T13:16:20.196Z,1.55
2022-11-03T13:18:46.809Z,1.80
2022-11-03T13:21:13.568Z,1.67
2022-11-03T13:23:41.163Z,1.63
2022-11-03T13:26:08.015Z,1.60
2022-11-03T13:28:34.631Z,1.42
2022-11-03T13:31:01.349Z,1.55
2022-11-03T13:33:27.933Z,1.90
2022-11-03T13:35:54.538Z,1.70
2022-11-03T13:38:21.390Z,2.17
2022-11-03T13:40:57.015Z,1.58
2022-11-03T13:43:24.911Z,2.10
2022-11-03T13:45:52.909Z,1.83
2022-11-03T13:49:21.593Z,1.52
2022-11-03T13:51:06.355Z,1.65
2022-11-03T13:56:23.423Z,1.55
2022-11-03T14:01:38.758Z,2.05
2022-11-03T14:06:52.394Z,1.70
2022-11-03T14:09:18.962Z,1.77
2022-11-03T14:12:04.078Z,1.63
2022-11-03T14:14:30.689Z,1.50
2022-11-03T14:16:57.335Z,2.20
2022-11-03T14:19:29.418Z,1.63
2022-11-03T14:22:02.172Z,1.42
2022-11-03T14:24:28.813Z,1.55
2022-11-03T14:26:55.347Z,1.85
2022-11-03T14:29:22.189Z,2.25
2022-11-03T14:31:48.769Z,2.05
2022-11-03T14:34:15.353Z,1.60
2022-11-03T14:36:42.230Z,1.85
2022-11-03T14:39:08.965Z,1.80
2022-11-03T14:41:54.126Z,1.70
2022-11-03T14:44:20.721Z,1.42
2022-11-03T14:46:47.286Z,2.10
2022-11-03T14:49:14.059Z,1.83
2022-11-03T14:51:40.719Z,1.80
2022-11-03T14:54:07.418Z,1.80
2022-11-03T14:56:33.958Z,1.80
2022-11-03T14:59:00.538Z,1.85
2022-11-03T15:01:27.204Z,1.67
2022-11-03T15:03:53.921Z,2.28
2022-11-03T15:06:20.475Z,1.55
2022-11-03T15:08:49.749Z,1.42
2022-11-03T15:11:18.660Z,1.95
2022-11-03T15:13:47.224Z,1.23
2022-11-03T15:16:16.487Z,1.35
2022-11-03T15:18:44.593Z,1.55
2022-11-03T15:21:11.463Z,1.42
2022-11-03T15:26:24.897Z,1.70
2022-11-03T15:28:51.491Z,1.70
2022-11-03T15:31:18.147Z,1.52
2022-11-03T15:33:44.695Z,1.52
2022-11-03T15:36:11.931Z,1.95
2022-11-03T15:38:38.636Z,1.40
2022-11-03T15:41:17.168Z,1.80
2022-11-03T15:43:45.239Z,1.60
2022-11-03T15:46:13.893Z,1.85
2022-11-03T15:48:41.061Z,1.80
2022-11-03T15:51:07.853Z,2.40
2022-11-03T15:53:34.459Z,1.95
2022-11-03T15:56:01.489Z,1.50
2022-11-03T15:58:28.100Z,1.40
2022-11-03T16:00:54.917Z,1.83
2022-11-03T16:03:21.657Z,1.95
2022-11-03T16:05:48.269Z,1.77
2022-11-03T16:08:14.822Z,1.92
2022-11-03T16:10:45.980Z,2.63
2022-11-03T16:13:17.296Z,1.92
2022-11-03T16:15:43.875Z,1.65
2022-11-03T16:18:10.671Z,2.10
2022-11-03T16:20:37.414Z,2.15
2022-11-03T16:23:04.038Z,1.80
2022-11-03T16:25:30.759Z,1.77
2022-11-03T16:27:57.335Z,1.92
2022-11-03T16:30:23.976Z,1.85
2022-11-03T16:32:53.111Z,1.67
2022-11-03T16:35:20.633Z,1.67
2022-11-03T16:37:47.187Z,1.85
2022-11-03T16:40:19.034Z,1.90
2022-11-03T16:42:46.178Z,1.33
2022-11-03T16:45:18.564Z,1.77
2022-11-03T16:47:46.637Z,2.40
2022-11-03T16:50:13.707Z,1.83
2022-11-03T16:52:40.307Z,2.10
2022-11-03T16:55:07.535Z,2.05
2022-11-03T16:57:34.268Z,2.00
2022-11-03T17:00:00.875Z,1.83
2022-11-03T17:02:28.108Z,1.92
2022-11-03T17:04:54.944Z,1.90
2022-11-03T17:07:21.668Z,1.67
2022-11-03T17:09:48.435Z,2.00
2022-11-03T17:12:15.286Z,1.80
2022-11-03T17:14:41.977Z,2.20
2022-11-03T17:17:08.525Z,1.92
2022-11-03T17:19:35.067Z,1.98
2022-11-03T17:22:02.050Z,1.70
2022-11-03T17:24:28.590Z,2.00
2022-11-03T17:27:05.459Z,1.70
2022-11-03T17:29:36.086Z,2.13
2022-11-03T17:32:08.229Z,2.20
2022-11-03T17:34:34.800Z,2.00
2022-11-03T17:37:01.402Z,2.40
2022-11-03T17:39:34.439Z,1.90
2022-11-03T17:42:25.514Z,2.15
2022-11-03T17:44:57.565Z,2.60
2022-11-03T17:47:24.730Z,2.20
2022-11-03T17:49:51.431Z,1.95
2022-11-03T17:52:26.674Z,2.17
2022-11-03T17:54:56.280Z,2.30
2022-11-03T17:57:23.199Z,2.55
2022-11-03T17:59:52.178Z,2.45
2022-11-03T18:02:24.279Z,2.30
2022-11-03T18:04:55.592Z,2.80
2022-11-03T18:07:27.050Z,2.47
2022-11-03T18:09:53.811Z,2.60
2022-11-03T18:12:45.571Z,2.20
2022-11-03T18:15:18.966Z,2.33
2022-11-03T18:17:45.918Z,2.22
2022-11-03T18:20:18.242Z,2.33
2022-11-03T18:22:45.269Z,2.72
2022-11-03T18:25:16.651Z,2.28
2022-11-03T18:27:43.579Z,2.13
2022-11-03T18:30:11.824Z,2.10
2022-11-03T18:32:39.312Z,2.80
2022-11-03T18:35:06.702Z,3.35
2022-11-03T18:37:33.370Z,3.00
2022-11-03T18:40:00.039Z,2.80
2022-11-03T18:42:26.591Z,2.90
2022-11-03T18:44:53.338Z,2.50
2022-11-03T18:47:19.979Z,2.60
2022-11-03T18:49:47.801Z,2.40
2022-11-03T18:52:16.026Z,2.70
2022-11-03T18:54:47.688Z,2.40
2022-11-03T18:57:14.428Z,2.58
2022-11-03T18:59:44.023Z,2.50
2022-11-03T19:02:20.311Z,2.30
2022-11-03T19:04:47.635Z,3.05
2022-11-03T19:07:17.004Z,2.70
2022-11-03T19:09:44.147Z,2.90
2022-11-03T19:12:11.831Z,2.78
2022-11-03T19:14:40.138Z,2.63
2022-11-03T19:17:22.527Z,2.65
2022-11-03T19:19:49.854Z,2.17
2022-11-03T19:22:18.982Z,2.80
2022-11-03T19:24:45.616Z,3.33
2022-11-03T19:27:26.574Z,3.30
2022-11-03T19:29:53.702Z,3.20
2022-11-03T19:32:26.021Z,3.13
2022-11-03T19:35:20.210Z,2.65
2022-11-03T19:37:48.565Z,2.85
2022-11-03T19:40:17.675Z,2.67
2022-11-03T19:42:45.078Z,2.72
2022-11-03T19:45:17.987Z,3.60
2022-11-03T19:48:18.389Z,3.35
2022-11-03T19:50:39.063Z,3.00
2022-11-03T19:53:06.979Z,3.40
2022-11-03T19:55:36.420Z,2.75
2022-11-03T19:58:12.222Z,3.50
2022-11-03T20:00:38.777Z,3.47
2022-11-03T20:03:05.407Z,3.40
2022-11-03T20:05:31.947Z,3.50
2022-11-03T20:08:01.179Z,3.28
2022-11-03T20:10:30.458Z,3.20
2022-11-03T20:13:00.757Z,3.63
2022-11-03T20:15:27.416Z,3.97
2022-11-03T20:17:54.214Z,3.33
2022-11-03T20:20:22.826Z,3.03
2022-11-03T20:22:55.611Z,3.65
2022-11-03T20:25:24.741Z,3.90
2022-11-03T20:27:51.637Z,3.90
2022-11-03T20:30:19.922Z,3.50
2022-11-03T20:32:47.890Z,3.38
2022-11-03T20:35:20.016Z,3.58
2022-11-03T20:37:52.450Z,3.13
2022-11-03T20:40:21.979Z,3.67
2022-11-03T20:42:51.200Z,3.58
2022-11-03T20:45:20.110Z,3.42
2022-11-03T20:47:48.282Z,3.63
2022-11-03T20:50:17.071Z,3.38
2022-11-03T20:55:22.953Z,3.30
2022-11-03T20:57:50.403Z,3.85
2022-11-03T21:00:22.505Z,3.50
2022-11-03T21:02:49.631Z,3.40
2022-11-03T21:05:21.690Z,3.72
2022-11-03T21:07:48.326Z,3.97
2022-11-03T21:10:20.302Z,4.03
2022-11-03T21:12:47.595Z,3.72
2022-11-03T21:15:44.623Z,3.42
2022-11-03T21:18:42.801Z,4.20
2022-11-03T21:21:11.340Z,4.90
2022-11-03T21:23:38.366Z,5.57
2022-11-03T21:26:05.070Z,4.45
2022-11-03T21:28:31.631Z,3.80
2022-11-03T21:30:58.253Z,4.20
2022-11-03T21:33:24.966Z,4.13
2022-11-03T21:35:52.244Z,3.65
2022-11-03T21:38:18.950Z,4.00
2022-11-03T21:40:56.272Z,3.95
2022-11-03T21:43:41.552Z,4.93
2022-11-03T21:46:10.144Z,4.30
2022-11-03T21:51:22.456Z,4.22
2022-11-03T21:53:49.324Z,4.50
2022-11-03T21:56:16.472Z,4.13
2022-11-03T21:58:43.643Z,4.28
2022-11-03T22:01:10.596Z,3.83
2022-11-03T22:03:38.875Z,3.70
2022-11-03T22:06:08.133Z,4.50
2022-11-03T22:08:34.876Z,3.90
2022-11-03T22:11:24.276Z,3.72
2022-11-03T22:13:59.163Z,3.58
2022-11-03T22:16:41.348Z,3.60
2022-11-03T22:19:26.477Z,4.05
2022-11-03T22:22:11.832Z,3.60
2022-11-03T22:24:57.588Z,3.90
2022-11-03T22:27:25.058Z,3.40
2022-11-03T22:30:10.240Z,3.20
2022-11-03T22:32:36.985Z,4.10
2022-11-03T22:35:23.838Z,3.92
2022-11-03T22:38:10.320Z,5.18
2022-11-03T22:40:55.588Z,4.57
2022-11-03T22:43:41.695Z,4.95
2022-11-03T22:46:09.762Z,4.00
2022-11-03T22:48:36.581Z,4.35
2022-11-03T22:51:11.467Z,4.95
2022-11-03T22:53:57.218Z,5.70
2022-11-03T22:56:25.524Z,4.57
2022-11-03T22:58:52.575Z,6.63
2022-11-03T23:01:21.508Z,5.25
2022-11-03T23:03:49.201Z,5.57
2022-11-03T23:06:20.667Z,5.00
2022-11-03T23:08:48.177Z,5.20
2022-11-03T23:11:26.950Z,4.60
2022-11-03T23:14:15.662Z,4.72
2022-11-03T23:16:43.973Z,5.28
2022-11-03T23:19:30.565Z,5.22
2022-11-03T23:21:57.824Z,4.72
2022-11-03T23:24:45.377Z,4.68
2022-11-03T23:27:13.227Z,5.38
2022-11-03T23:29:40.074Z,5.10
2022-11-03T23:32:06.905Z,4.97
2022-11-03T23:34:35.231Z,5.88
2022-11-03T23:37:02.673Z,5.35
2022-11-03T23:39:29.258Z,5.40
2022-11-03T23:41:55.862Z,4.75
2022-11-03T23:44:22.429Z,5.20
2022-11-03T23:47:07.598Z,5.03
2022-11-03T23:49:34.141Z,5.32
2022-11-03T23:52:00.717Z,4.85
2022-11-03T23:54:27.430Z,5.32
2022-11-03T23:57:12.573Z,4.60
2022-11-03T23:59:39.448Z,4.45
